createdAt,value
2023-05-01T00:00:23.507Z,83.87
2023-05-01T00:01:23.471Z,83.98
2023-05-01T00:02:23.583Z,83.98
2023-05-01T00:03:23.589Z,84.08
2023-05-01T00:04:23.509Z,84.12
2023-05-01T00:05:23.428Z,84.12
2023-05-01T00:06:23.470Z,84.22
2023-05-01T00:07:23.403Z,84.22
2023-05-01T00:08:23.392Z,84.33
2023-05-01T00:09:23.415Z,84.42
2023-05-01T00:10:23.383Z,84.63
2023-05-01T00:11:23.375Z,84.74
2023-05-01T00:12:23.362Z,84.74
2023-05-01T00:13:23.344Z,84.83
2023-05-01T00:14:23.329Z,84.94
2023-05-01T00:15:23.325Z,85.04
2023-05-01T00:16:23.342Z,85.04
2023-05-01T00:17:23.301Z,85.14
2023-05-01T00:18:23.294Z,85.14
2023-05-01T00:19:23.275Z,85.35
2023-05-01T00:20:23.254Z,85.45
2023-05-01T00:21:23.259Z,85.69
2023-05-01T00:22:23.255Z,85.79
2023-05-01T00:23:23.236Z,85.79
2023-05-01T00:24:23.207Z,85.89
2023-05-01T00:25:23.201Z,85.69
2023-05-01T00:26:23.208Z,85.59
2023-05-01T00:27:23.202Z,85.59
2023-05-01T00:28:23.177Z,85.49
2023-05-01T00:29:23.184Z,85.38
2023-05-01T00:30:23.158Z,85.28
2023-05-01T00:31:23.225Z,85.18
2023-05-01T00:32:23.172Z,84.98
2023-05-01T00:33:23.153Z,84.77
2023-05-01T00:34:23.148Z,84.77
2023-05-01T00:35:23.096Z,84.77
2023-05-01T00:36:23.085Z,84.67
2023-05-01T00:37:23.087Z,84.67
2023-05-01T00:38:23.072Z,85.18
2023-05-01T00:39:23.063Z,85.08
2023-05-01T00:40:23.057Z,85.18
2023-05-01T00:41:23.040Z,85.18
2023-05-01T00:42:23.040Z,85.18
2023-05-01T00:43:23.034Z,85.18
2023-05-01T00:44:23.002Z,85.18
2023-05-01T00:45:23.030Z,85.28
2023-05-01T00:46:23.012Z,85.38
2023-05-01T00:47:23.027Z,85.38
2023-05-01T00:48:22.967Z,85.38
2023-05-01T00:49:22.952Z,85.38
2023-05-01T00:50:22.966Z,85.38
2023-05-01T00:51:22.948Z,85.38
2023-05-01T00:52:22.941Z,85.59
2023-05-01T00:53:22.933Z,85.69
2023-05-01T00:54:22.928Z,85.69
2023-05-01T00:55:22.885Z,85.69
2023-05-01T00:56:22.885Z,85.83
2023-05-01T00:57:22.867Z,85.94
2023-05-01T00:58:22.869Z,86.04
2023-05-01T00:59:22.878Z,85.94
2023-05-01T01:00:22.869Z,85.83
2023-05-01T01:01:22.968Z,85.83
2023-05-01T01:02:22.893Z,85.83
2023-05-01T01:03:22.819Z,85.83
2023-05-01T01:04:22.888Z,85.73
2023-05-01T01:05:22.805Z,85.83
2023-05-01T01:06:22.861Z,85.83
2023-05-01T01:07:22.780Z,85.94
2023-05-01T01:08:22.757Z,85.94
2023-05-01T01:09:22.742Z,86.04
2023-05-01T01:10:22.753Z,86.04
2023-05-01T01:11:22.720Z,85.83
2023-05-01T01:12:22.726Z,85.94
2023-05-01T01:13:22.689Z,86.14
2023-05-01T01:14:22.708Z,86.24
2023-05-01T01:15:22.715Z,86.24
2023-05-01T01:16:22.750Z,86.14
2023-05-01T01:17:22.740Z,86.24
2023-05-01T01:18:22.648Z,86.14
2023-05-01T01:19:22.649Z,86.14
2023-05-01T01:20:22.629Z,86.14
2023-05-01T01:21:22.653Z,86.04
2023-05-01T01:22:22.612Z,86.04
2023-05-01T01:23:22.634Z,86.14
2023-05-01T01:24:22.592Z,86.14
2023-05-01T01:25:22.589Z,86.14
2023-05-01T01:26:22.589Z,86.14
2023-05-01T01:27:22.556Z,86.14
2023-05-01T01:28:22.553Z,86.35
2023-05-01T01:29:22.544Z,86.44
2023-05-01T01:30:22.549Z,86.49
2023-05-01T01:31:22.553Z,86.55
2023-05-01T01:32:22.526Z,86.79
2023-05-01T01:33:22.479Z,86.79
2023-05-01T01:34:22.485Z,87.00
2023-05-01T01:35:22.500Z,87.10
2023-05-01T01:36:22.493Z,87.00
2023-05-01T01:37:22.483Z,87.00
2023-05-01T01:38:22.460Z,87.20
2023-05-01T01:39:22.421Z,87.30
2023-05-01T01:40:22.447Z,87.51
2023-05-01T01:41:22.417Z,87.61
2023-05-01T01:42:22.416Z,87.61
2023-05-01T01:43:22.372Z,87.61
2023-05-01T01:44:22.391Z,87.61
2023-05-01T01:45:22.387Z,87.61
2023-05-01T01:46:22.413Z,87.61
2023-05-01T01:47:22.395Z,87.61
2023-05-01T01:48:22.362Z,87.61
2023-05-01T01:49:22.310Z,87.61
2023-05-01T01:50:22.323Z,87.61
2023-05-01T01:51:22.314Z,87.61
2023-05-01T01:52:22.318Z,87.71
2023-05-01T01:53:22.277Z,87.92
2023-05-01T01:54:22.282Z,87.92
2023-05-01T01:55:22.259Z,87.92
2023-05-01T01:56:22.249Z,88.12
2023-05-01T01:57:22.236Z,88.02
2023-05-01T01:58:22.240Z,88.02
2023-05-01T01:59:22.207Z,88.02
2023-05-01T02:00:22.235Z,88.02
2023-05-01T02:01:22.246Z,88.02
2023-05-01T02:02:22.219Z,88.02
2023-05-01T02:03:22.258Z,88.02
2023-05-01T02:04:22.181Z,88.02
2023-05-01T02:05:22.171Z,88.02
2023-05-01T02:06:22.209Z,87.92
2023-05-01T02:07:22.133Z,88.02
2023-05-01T02:08:22.132Z,87.92
2023-05-01T02:09:22.103Z,87.82
2023-05-01T02:10:22.122Z,87.71
2023-05-01T02:11:22.088Z,87.71
2023-05-01T02:12:22.069Z,87.82
2023-05-01T02:13:22.161Z,87.92
2023-05-01T02:14:22.054Z,88.12
2023-05-01T02:15:22.072Z,88.23
2023-05-01T02:16:22.106Z,88.33
2023-05-01T02:17:22.054Z,88.33
2023-05-01T02:18:22.022Z,88.33
2023-05-01T02:19:21.999Z,88.23
2023-05-01T02:20:22.003Z,88.23
2023-05-01T02:21:21.974Z,88.23
2023-05-01T02:22:21.965Z,88.12
2023-05-01T02:23:21.971Z,88.23
2023-05-01T02:24:21.952Z,88.33
2023-05-01T02:25:21.938Z,88.33
2023-05-01T02:26:21.941Z,88.43
2023-05-01T02:27:21.922Z,88.53
2023-05-01T02:28:21.943Z,88.64
2023-05-01T02:29:21.906Z,88.53
2023-05-01T02:30:21.896Z,88.43
2023-05-01T02:31:21.911Z,88.43
2023-05-01T02:32:21.896Z,88.64
2023-05-01T02:33:21.852Z,88.53
2023-05-01T02:34:21.866Z,88.53
2023-05-01T02:35:21.836Z,88.64
2023-05-01T02:36:21.848Z,88.64
2023-05-01T02:37:21.818Z,88.43
2023-05-01T02:38:21.824Z,88.33
2023-05-01T02:39:21.813Z,88.23
2023-05-01T02:40:21.796Z,88.12
2023-05-01T02:41:21.767Z,88.43
2023-05-01T02:42:21.759Z,88.53
2023-05-01T02:43:21.766Z,88.53
2023-05-01T02:44:21.742Z,88.53
2023-05-01T02:45:21.738Z,88.53
2023-05-01T02:46:21.802Z,88.53
2023-05-01T02:47:21.815Z,88.53
2023-05-01T02:48:21.710Z,88.64
2023-05-01T02:49:21.685Z,88.74
2023-05-01T02:50:21.693Z,88.84
2023-05-01T02:51:21.702Z,88.94
2023-05-01T02:52:21.672Z,89.04
2023-05-01T02:53:21.648Z,89.04
2023-05-01T02:54:21.626Z,89.04
2023-05-01T02:55:21.617Z,88.94
2023-05-01T02:56:21.629Z,88.94
2023-05-01T02:57:21.603Z,88.94
2023-05-01T02:58:21.628Z,88.84
2023-05-01T02:59:21.582Z,88.94
2023-05-01T03:00:21.564Z,89.04
2023-05-01T03:01:21.607Z,88.94
2023-05-01T03:02:21.555Z,88.84
2023-05-01T03:03:21.638Z,88.84
2023-05-01T03:04:21.568Z,88.84
2023-05-01T03:05:21.526Z,88.74
2023-05-01T03:06:21.549Z,88.74
2023-05-01T03:07:21.480Z,88.74
2023-05-01T03:08:21.501Z,88.84
2023-05-01T03:09:21.461Z,88.84
2023-05-01T03:10:21.452Z,88.94
2023-05-01T03:11:21.440Z,88.94
2023-05-01T03:12:21.452Z,88.94
2023-05-01T03:13:21.453Z,88.94
2023-05-01T03:14:21.440Z,88.84
2023-05-01T03:15:21.404Z,88.94
2023-05-01T03:16:21.503Z,88.94
2023-05-01T03:17:21.406Z,88.94
2023-05-01T03:18:21.393Z,88.94
2023-05-01T03:19:21.389Z,89.04
2023-05-01T03:20:21.362Z,89.15
2023-05-01T03:21:21.346Z,89.15
2023-05-01T03:22:21.363Z,89.25
2023-05-01T03:23:21.331Z,89.25
2023-05-01T03:24:21.341Z,89.35
2023-05-01T03:25:21.294Z,89.56
2023-05-01T03:26:21.299Z,89.56
2023-05-01T03:27:21.286Z,89.56
2023-05-01T03:28:21.265Z,89.65
2023-05-01T03:29:21.272Z,89.76
2023-05-01T03:30:21.258Z,89.76
2023-05-01T03:31:21.219Z,89.86
2023-05-01T03:32:21.299Z,89.76
2023-05-01T03:33:21.232Z,89.86
2023-05-01T03:34:21.221Z,89.86
2023-05-01T03:35:21.201Z,89.97
2023-05-01T03:36:21.166Z,89.97
2023-05-01T03:37:21.168Z,90.17
2023-05-01T03:38:21.164Z,90.27
2023-05-01T03:39:21.147Z,90.27
2023-05-01T03:40:21.185Z,90.21
2023-05-01T03:41:21.120Z,90.17
2023-05-01T03:42:21.143Z,90.21
2023-05-01T03:43:21.111Z,90.27
2023-05-01T03:44:21.102Z,90.27
2023-05-01T03:45:21.066Z,90.27
2023-05-01T03:46:21.113Z,90.27
2023-05-01T03:47:21.063Z,90.06
2023-05-01T03:48:21.087Z,90.11
2023-05-01T03:49:21.047Z,90.21
2023-05-01T03:50:21.023Z,90.21
2023-05-01T03:51:21.001Z,90.21
2023-05-01T03:52:21.019Z,90.31
2023-05-01T03:53:20.994Z,90.27
2023-05-01T03:54:20.996Z,90.17
2023-05-01T03:55:20.976Z,90.06
2023-05-01T03:56:20.970Z,89.90
2023-05-01T03:57:20.961Z,89.76
2023-05-01T03:58:20.955Z,89.56
2023-05-01T03:59:20.946Z,89.45
2023-05-01T04:00:20.917Z,89.45
2023-05-01T04:01:20.920Z,89.45
2023-05-01T04:02:20.960Z,89.56
2023-05-01T04:03:20.933Z,89.65
2023-05-01T04:04:20.991Z,89.76
2023-05-01T04:05:20.888Z,89.65
2023-05-01T04:06:20.878Z,89.56
2023-05-01T04:07:20.844Z,89.56
2023-05-01T04:08:20.840Z,89.56
2023-05-01T04:09:20.826Z,89.45
2023-05-01T04:10:20.860Z,89.56
2023-05-01T04:11:20.800Z,89.56
2023-05-01T04:12:20.786Z,89.56
2023-05-01T04:13:20.782Z,89.45
2023-05-01T04:14:20.769Z,89.45
2023-05-01T04:15:20.780Z,89.56
2023-05-01T04:16:20.798Z,89.56
2023-05-01T04:17:20.739Z,89.56
2023-05-01T04:18:20.756Z,89.45
2023-05-01T04:19:20.729Z,89.45
2023-05-01T04:20:20.718Z,89.45
2023-05-01T04:21:20.715Z,89.65
2023-05-01T04:22:20.701Z,89.76
2023-05-01T04:23:22.154Z,89.86
2023-05-01T04:24:20.694Z,89.86
2023-05-01T04:25:20.669Z,89.97
2023-05-01T04:26:20.654Z,89.86
2023-05-01T04:27:20.635Z,89.97
2023-05-01T04:28:20.636Z,89.86
2023-05-01T04:29:20.612Z,89.76
2023-05-01T04:30:20.605Z,89.86
2023-05-01T04:31:20.614Z,89.76
2023-05-01T04:32:20.626Z,89.86
2023-05-01T04:33:20.562Z,89.86
2023-05-01T04:34:20.601Z,89.86
2023-05-01T04:35:20.533Z,89.76
2023-05-01T04:36:20.543Z,89.86
2023-05-01T04:37:20.518Z,89.86
2023-05-01T04:38:20.511Z,89.97
2023-05-01T04:39:20.503Z,89.97
2023-05-01T04:40:20.487Z,90.17
2023-05-01T04:41:20.465Z,90.17
2023-05-01T04:42:20.470Z,90.06
2023-05-01T04:43:20.462Z,89.97
2023-05-01T04:44:20.460Z,89.86
2023-05-01T04:45:20.425Z,89.86
2023-05-01T04:46:20.475Z,89.72
2023-05-01T04:47:20.411Z,89.61
2023-05-01T04:48:20.438Z,89.51
2023-05-01T04:49:20.394Z,89.41
2023-05-01T04:50:20.392Z,89.41
2023-05-01T04:51:20.383Z,89.31
2023-05-01T04:52:20.367Z,89.20
2023-05-01T04:53:20.350Z,89.20
2023-05-01T04:54:20.598Z,89.11
2023-05-01T04:55:20.330Z,89.20
2023-05-01T04:56:20.319Z,89.51
2023-05-01T04:57:20.326Z,89.61
2023-05-01T04:58:20.306Z,89.11
2023-05-01T04:59:20.273Z,89.00
2023-05-01T05:00:20.277Z,89.11
2023-05-01T05:01:20.313Z,89.00
2023-05-01T05:02:20.333Z,87.98
2023-05-01T05:03:20.309Z,87.47
2023-05-01T05:04:20.352Z,87.26
2023-05-01T05:05:20.225Z,86.96
2023-05-01T05:06:20.237Z,86.96
2023-05-01T05:07:20.219Z,87.47
2023-05-01T05:08:20.206Z,87.26
2023-05-01T05:09:20.449Z,87.26
2023-05-01T05:10:20.168Z,86.96
2023-05-01T05:11:20.162Z,86.24
2023-05-01T05:12:20.180Z,86.65
2023-05-01T05:13:20.144Z,86.55
2023-05-01T05:14:20.144Z,86.14
2023-05-01T05:15:20.120Z,86.76
2023-05-01T05:16:20.167Z,86.76
2023-05-01T05:17:20.088Z,86.76
2023-05-01T05:18:20.174Z,87.02
2023-05-01T05:19:20.089Z,87.02
2023-05-01T05:20:20.050Z,86.82
2023-05-01T05:21:20.066Z,86.82
2023-05-01T05:22:20.038Z,86.61
2023-05-01T05:23:20.057Z,86.51
2023-05-01T05:24:20.030Z,86.61
2023-05-01T05:25:20.009Z,86.61
2023-05-01T05:26:19.996Z,86.20
2023-05-01T05:27:19.990Z,86.20
2023-05-01T05:28:19.993Z,86.20
2023-05-01T05:29:19.984Z,86.00
2023-05-01T05:30:19.939Z,86.10
2023-05-01T05:31:19.929Z,86.20
2023-05-01T05:32:20.051Z,86.10
2023-05-01T05:33:19.997Z,86.00
2023-05-01T05:34:19.916Z,86.00
2023-05-01T05:35:19.911Z,86.00
2023-05-01T05:36:19.892Z,86.20
2023-05-01T05:37:19.881Z,86.41
2023-05-01T05:38:19.872Z,86.00
2023-05-01T05:39:19.866Z,86.10
2023-05-01T05:40:19.881Z,85.69
2023-05-01T05:41:19.831Z,85.69
2023-05-01T05:42:19.824Z,86.00
2023-05-01T05:43:19.817Z,86.10
2023-05-01T05:44:19.793Z,86.30
2023-05-01T05:45:19.831Z,86.41
2023-05-01T05:46:19.824Z,86.30
2023-05-01T05:47:19.784Z,85.89
2023-05-01T05:48:19.822Z,86.20
2023-05-01T05:49:19.762Z,86.41
2023-05-01T05:50:19.740Z,86.51
2023-05-01T05:51:19.747Z,86.51
2023-05-01T05:52:19.724Z,86.71
2023-05-01T05:53:19.751Z,86.41
2023-05-01T05:54:19.696Z,86.61
2023-05-01T05:55:19.729Z,86.51
2023-05-01T05:56:19.686Z,86.71
2023-05-01T05:57:19.652Z,86.71
2023-05-01T05:58:19.645Z,86.51
2023-05-01T05:59:19.653Z,86.30
2023-05-01T06:00:19.630Z,86.20
2023-05-01T06:01:19.652Z,86.20
2023-05-01T06:02:19.739Z,85.89
2023-05-01T06:03:19.760Z,86.00
2023-05-01T06:04:19.582Z,86.20
2023-05-01T06:05:19.642Z,86.00
2023-05-01T06:06:19.638Z,86.20
2023-05-01T06:07:19.555Z,86.41
2023-05-01T06:08:19.557Z,86.67
2023-05-01T06:09:19.541Z,86.77
2023-05-01T06:10:19.526Z,86.77
2023-05-01T06:11:19.526Z,86.77
2023-05-01T06:12:19.511Z,87.08
2023-05-01T06:13:19.524Z,87.38
2023-05-01T06:14:19.495Z,87.49
2023-05-01T06:15:19.497Z,87.49
2023-05-01T06:16:19.480Z,87.70
2023-05-01T06:17:19.452Z,88.00
2023-05-01T06:18:19.509Z,88.31
2023-05-01T06:19:19.457Z,87.90
2023-05-01T06:20:19.429Z,87.59
2023-05-01T06:21:19.414Z,87.76
2023-05-01T06:22:19.392Z,87.65
2023-05-01T06:23:19.395Z,87.24
2023-05-01T06:24:19.401Z,87.14
2023-05-01T06:25:19.396Z,87.35
2023-05-01T06:26:19.368Z,87.65
2023-05-01T06:27:19.356Z,87.65
2023-05-01T06:28:19.337Z,86.63
2023-05-01T06:29:19.346Z,86.33
2023-05-01T06:30:19.305Z,86.73
2023-05-01T06:31:19.374Z,86.53
2023-05-01T06:32:19.297Z,86.49
2023-05-01T06:33:19.283Z,86.69
2023-05-01T06:34:19.279Z,86.39
2023-05-01T06:35:19.263Z,86.08
2023-05-01T06:36:19.257Z,86.08
2023-05-01T06:37:19.245Z,86.18
2023-05-01T06:38:19.223Z,85.88
2023-05-01T06:39:19.265Z,85.68
2023-05-01T06:40:19.203Z,85.53
2023-05-01T06:41:19.207Z,85.53
2023-05-01T06:42:19.193Z,85.53
2023-05-01T06:43:19.179Z,85.33
2023-05-01T06:44:19.166Z,85.02
2023-05-01T06:45:19.165Z,84.72
2023-05-01T06:46:19.169Z,84.51
2023-05-01T06:47:19.910Z,84.11
2023-05-01T06:48:19.149Z,84.20
2023-05-01T06:49:19.199Z,83.49
2023-05-01T06:50:19.136Z,83.70
2023-05-01T06:51:19.801Z,83.90
2023-05-01T06:52:19.095Z,84.11
2023-05-01T06:53:19.166Z,84.11
2023-05-01T06:54:19.082Z,84.11
2023-05-01T06:55:19.746Z,84.41
2023-05-01T06:56:19.067Z,84.72
2023-05-01T06:57:19.296Z,84.61
2023-05-01T06:58:23.859Z,84.88
2023-05-01T06:59:20.249Z,84.47
2023-05-01T07:00:19.021Z,84.47
2023-05-01T07:01:19.622Z,84.98
2023-05-01T07:02:19.003Z,84.88
2023-05-01T07:03:19.038Z,85.19
2023-05-01T07:04:18.978Z,85.60
2023-05-01T07:05:18.942Z,84.47
2023-05-01T07:06:18.973Z,84.67
2023-05-01T07:07:18.925Z,85.19
2023-05-01T07:08:18.913Z,85.60
2023-05-01T07:09:18.919Z,85.25
2023-05-01T07:10:18.899Z,84.74
2023-05-01T07:11:18.887Z,84.43
2023-05-01T07:12:18.861Z,84.64
2023-05-01T07:13:18.858Z,84.74
2023-05-01T07:14:18.856Z,84.84
2023-05-01T07:15:18.851Z,85.05
2023-05-01T07:16:18.855Z,84.94
2023-05-01T07:17:18.906Z,85.31
2023-05-01T07:18:18.826Z,85.31
2023-05-01T07:19:18.792Z,85.21
2023-05-01T07:20:18.780Z,85.72
2023-05-01T07:21:18.766Z,85.61
2023-05-01T07:22:18.769Z,85.82
2023-05-01T07:23:18.762Z,85.61
2023-05-01T07:24:18.749Z,85.47
2023-05-01T07:25:18.738Z,85.78
2023-05-01T07:26:18.716Z,85.47
2023-05-01T07:27:18.721Z,85.06
2023-05-01T07:28:18.686Z,85.37
2023-05-01T07:29:18.699Z,85.58
2023-05-01T07:30:18.677Z,85.47
2023-05-01T07:31:18.706Z,85.68
2023-05-01T07:32:18.754Z,85.64
2023-05-01T07:33:18.753Z,85.13
2023-05-01T07:34:18.620Z,84.31
2023-05-01T07:35:18.641Z,84.52
2023-05-01T07:36:18.660Z,83.60
2023-05-01T07:37:18.627Z,83.70
2023-05-01T07:38:18.588Z,84.11
2023-05-01T07:39:18.565Z,84.01
2023-05-01T07:40:18.570Z,84.17
2023-05-01T07:41:18.546Z,83.97
2023-05-01T07:42:18.574Z,84.07
2023-05-01T07:43:18.555Z,84.17
2023-05-01T07:44:18.520Z,83.01
2023-05-01T07:45:18.524Z,81.73
2023-05-01T07:46:18.501Z,81.23
2023-05-01T07:47:18.521Z,81.39
2023-05-01T07:48:18.494Z,82.10
2023-05-01T07:49:19.560Z,82.00
2023-05-01T07:50:18.468Z,82.20
2023-05-01T07:51:18.460Z,82.51
2023-05-01T07:52:18.450Z,82.57
2023-05-01T07:53:18.432Z,82.06
2023-05-01T07:54:18.417Z,82.26
2023-05-01T07:55:18.404Z,82.37
2023-05-01T07:56:18.381Z,82.06
2023-05-01T07:57:18.406Z,82.26
2023-05-01T07:58:18.366Z,83.14
2023-05-01T07:59:18.355Z,82.64
2023-05-01T08:00:18.351Z,82.43
2023-05-01T08:01:18.356Z,81.45
2023-05-01T08:02:18.345Z,81.56
2023-05-01T08:03:18.416Z,81.76
2023-05-01T08:04:18.487Z,82.37
2023-05-01T08:05:18.309Z,82.17
2023-05-01T08:06:18.381Z,81.45
2023-05-01T08:07:18.306Z,81.05
2023-05-01T08:08:18.270Z,81.05
2023-05-01T08:09:18.273Z,81.45
2023-05-01T08:10:18.279Z,80.94
2023-05-01T08:11:18.234Z,80.64
2023-05-01T08:12:18.235Z,81.05
2023-05-01T08:13:18.239Z,81.05
2023-05-01T08:14:18.206Z,80.80
2023-05-01T08:15:18.201Z,80.10
2023-05-01T08:16:19.786Z,79.49
2023-05-01T08:17:18.185Z,79.49
2023-05-01T08:18:18.157Z,79.59
2023-05-01T08:19:18.161Z,80.19
2023-05-01T08:20:18.133Z,80.30
2023-05-01T08:21:18.140Z,79.90
2023-05-01T08:22:18.104Z,79.59
2023-05-01T08:23:18.139Z,79.49
2023-05-01T08:24:18.105Z,79.28
2023-05-01T08:25:18.095Z,79.04
2023-05-01T08:26:18.080Z,78.74
2023-05-01T08:27:18.071Z,78.03
2023-05-01T08:28:18.061Z,77.72
2023-05-01T08:29:18.051Z,78.03
2023-05-01T08:30:18.035Z,78.23
2023-05-01T08:31:18.058Z,78.09
2023-05-01T08:32:18.024Z,77.18
2023-05-01T08:33:18.015Z,76.87
2023-05-01T08:34:17.995Z,76.47
2023-05-01T08:35:17.990Z,76.43
2023-05-01T08:36:19.428Z,76.94
2023-05-01T08:37:17.972Z,76.43
2023-05-01T08:38:17.953Z,75.69
2023-05-01T08:39:17.956Z,75.28
2023-05-01T08:40:17.933Z,75.59
2023-05-01T08:41:17.915Z,75.18
2023-05-01T08:42:17.923Z,74.17
2023-05-01T08:43:17.903Z,74.57
2023-05-01T08:44:17.874Z,75.69
2023-05-01T08:45:17.887Z,75.15
2023-05-01T08:46:17.917Z,74.54
2023-05-01T08:47:17.873Z,74.64
2023-05-01T08:48:17.830Z,74.24
2023-05-01T08:49:17.835Z,74.60
2023-05-01T08:50:17.830Z,73.80
2023-05-01T08:51:19.562Z,74.30
2023-05-01T08:52:17.820Z,73.90
2023-05-01T08:53:17.793Z,73.09
2023-05-01T08:54:17.788Z,72.88
2023-05-01T08:55:17.761Z,73.36
2023-05-01T08:56:17.758Z,73.25
2023-05-01T08:57:17.753Z,73.36
2023-05-01T08:58:17.724Z,72.95
2023-05-01T08:59:17.722Z,72.85
2023-05-01T09:00:17.700Z,72.65
2023-05-01T09:01:17.696Z,72.72
2023-05-01T09:02:17.674Z,73.32
2023-05-01T09:03:17.886Z,72.81
2023-05-01T09:04:17.800Z,72.61
2023-05-01T09:05:17.662Z,72.21
2023-05-01T09:06:17.695Z,72.11
2023-05-01T09:07:17.711Z,72.58
2023-05-01T09:08:17.628Z,72.58
2023-05-01T09:09:17.618Z,72.17
2023-05-01T09:10:17.614Z,72.17
2023-05-01T09:11:17.671Z,71.94
2023-05-01T09:12:17.592Z,72.44
2023-05-01T09:13:17.575Z,71.44
2023-05-01T09:14:17.554Z,71.23
2023-05-01T09:15:17.558Z,71.30
2023-05-01T09:16:17.583Z,71.20
2023-05-01T09:17:17.546Z,71.30
2023-05-01T09:18:17.563Z,70.69
2023-05-01T09:19:17.497Z,70.79
2023-05-01T09:20:17.505Z,71.10
2023-05-01T09:21:17.490Z,70.49
2023-05-01T09:22:17.501Z,69.95
2023-05-01T09:23:18.006Z,70.26
2023-05-01T09:24:17.443Z,70.46
2023-05-01T09:25:17.448Z,70.56
2023-05-01T09:26:17.434Z,70.15
2023-05-01T09:27:17.413Z,69.65
2023-05-01T09:28:17.421Z,69.55
2023-05-01T09:29:17.390Z,69.55
2023-05-01T09:30:17.398Z,69.21
2023-05-01T09:31:17.374Z,68.81
2023-05-01T09:32:17.556Z,68.51
2023-05-01T09:33:17.476Z,68.61
2023-05-01T09:34:17.353Z,68.91
2023-05-01T09:35:17.330Z,68.61
2023-05-01T09:36:17.327Z,68.41
2023-05-01T09:37:17.316Z,68.41
2023-05-01T09:38:17.353Z,68.07
2023-05-01T09:39:18.191Z,68.27
2023-05-01T09:40:17.301Z,67.87
2023-05-01T09:41:17.266Z,67.47
2023-05-01T09:42:17.254Z,67.33
2023-05-01T09:43:17.250Z,67.43
2023-05-01T09:44:17.236Z,67.13
2023-05-01T09:45:17.224Z,66.73
2023-05-01T09:46:17.270Z,66.93
2023-05-01T09:47:17.196Z,66.63
2023-05-01T09:48:17.207Z,67.03
2023-05-01T09:49:17.170Z,67.10
2023-05-01T09:50:17.179Z,66.90
2023-05-01T09:51:17.172Z,67.00
2023-05-01T09:52:17.151Z,67.00
2023-05-01T09:53:17.142Z,67.60
2023-05-01T09:54:17.169Z,66.47
2023-05-01T09:55:17.132Z,66.77
2023-05-01T09:56:17.121Z,66.27
2023-05-01T09:57:17.107Z,66.06
2023-05-01T09:58:17.095Z,65.46
2023-05-01T09:59:17.121Z,65.86
2023-05-01T10:00:17.076Z,65.76
2023-05-01T10:01:17.108Z,66.47
2023-05-01T10:02:17.144Z,67.27
2023-05-01T10:03:17.145Z,66.67
2023-05-01T10:04:17.039Z,66.47
2023-05-01T10:05:17.032Z,65.86
2023-05-01T10:06:17.110Z,65.96
2023-05-01T10:07:16.992Z,66.36
2023-05-01T10:08:17.042Z,65.76
2023-05-01T10:09:17.398Z,65.59
2023-05-01T10:10:17.756Z,65.59
2023-05-01T10:11:16.968Z,66.13
2023-05-01T10:12:17.994Z,66.73
2023-05-01T10:13:16.963Z,66.86
2023-05-01T10:14:17.016Z,66.76
2023-05-01T10:15:25.672Z,66.96
2023-05-01T10:16:18.638Z,67.36
2023-05-01T10:17:17.308Z,67.33
2023-05-01T10:18:17.351Z,67.63
2023-05-01T10:19:17.175Z,67.03
2023-05-01T10:20:17.047Z,66.83
2023-05-01T10:21:16.858Z,67.00
2023-05-01T10:22:17.776Z,66.19
2023-05-01T10:23:16.848Z,65.89
2023-05-01T10:24:17.365Z,66.06
2023-05-01T10:25:16.820Z,65.96
2023-05-01T10:26:16.870Z,65.96
2023-05-01T10:27:16.786Z,66.06
2023-05-01T10:28:17.493Z,65.96
2023-05-01T10:29:16.767Z,65.93
2023-05-01T10:30:17.465Z,65.73
2023-05-01T10:31:16.857Z,66.13
2023-05-01T10:32:16.777Z,65.39
2023-05-01T10:33:16.773Z,65.19
2023-05-01T10:34:16.982Z,64.99
2023-05-01T10:35:16.697Z,64.39
2023-05-01T10:36:16.714Z,64.09
2023-05-01T10:37:16.708Z,64.06
2023-05-01T10:38:16.734Z,63.45
2023-05-01T10:39:16.723Z,63.65
2023-05-01T10:40:17.375Z,63.45
2023-05-01T10:41:16.675Z,63.76
2023-05-01T10:42:17.345Z,64.06
2023-05-01T10:43:16.634Z,63.42
2023-05-01T10:44:16.651Z,63.62
2023-05-01T10:45:16.598Z,63.82
2023-05-01T10:46:16.679Z,63.62
2023-05-01T10:47:16.571Z,62.42
2023-05-01T10:48:16.582Z,62.02
2023-05-01T10:49:16.564Z,62.62
2023-05-01T10:50:16.578Z,63.09
2023-05-01T10:51:16.520Z,63.29
2023-05-01T10:52:17.234Z,63.19
2023-05-01T10:53:16.543Z,60.48
2023-05-01T10:54:16.516Z,60.88
2023-05-01T10:55:16.480Z,60.68
2023-05-01T10:56:16.490Z,61.18
2023-05-01T10:57:16.472Z,60.48
2023-05-01T10:58:16.461Z,60.38
2023-05-01T10:59:16.496Z,60.78
2023-05-01T11:00:16.495Z,61.58
2023-05-01T11:01:16.428Z,62.08
2023-05-01T11:02:16.525Z,61.15
2023-05-01T11:03:16.483Z,60.96
2023-05-01T11:04:16.413Z,61.35
2023-05-01T11:05:18.484Z,61.46
2023-05-01T11:06:18.947Z,61.05
2023-05-01T11:07:16.525Z,61.05
2023-05-01T11:08:16.372Z,61.05
2023-05-01T11:09:16.351Z,61.46
2023-05-01T11:10:16.331Z,60.75
2023-05-01T11:11:16.318Z,60.55
2023-05-01T11:12:16.334Z,59.95
2023-05-01T11:13:16.300Z,59.85
2023-05-01T11:14:16.269Z,60.15
2023-05-01T11:15:16.300Z,60.15
2023-05-01T11:16:16.299Z,59.95
2023-05-01T11:17:16.248Z,60.48
2023-05-01T11:18:16.300Z,60.48
2023-05-01T11:19:16.226Z,59.78
2023-05-01T11:20:16.219Z,59.58
2023-05-01T11:21:17.268Z,60.18
2023-05-01T11:22:16.238Z,60.78
2023-05-01T11:23:16.897Z,60.78
2023-05-01T11:24:16.197Z,60.15
2023-05-01T11:25:16.246Z,60.15
2023-05-01T11:26:16.164Z,60.05
2023-05-01T11:27:16.857Z,59.92
2023-05-01T11:28:16.154Z,59.82
2023-05-01T11:29:16.186Z,59.82
2023-05-01T11:30:16.132Z,59.82
2023-05-01T11:31:16.858Z,59.12
2023-05-01T11:32:16.257Z,59.52
2023-05-01T11:33:16.139Z,59.79
2023-05-01T11:34:16.076Z,59.39
2023-05-01T11:35:16.060Z,58.59
2023-05-01T11:36:16.074Z,57.98
2023-05-01T11:37:16.026Z,58.29
2023-05-01T11:38:16.035Z,59.39
2023-05-01T11:39:16.044Z,59.29
2023-05-01T11:40:15.992Z,59.19
2023-05-01T11:41:15.994Z,59.29
2023-05-01T11:42:16.265Z,59.89
2023-05-01T11:43:17.030Z,59.39
2023-05-01T11:44:15.963Z,58.89
2023-05-01T11:45:15.948Z,58.89
2023-05-01T11:46:15.994Z,59.19
2023-05-01T11:47:15.957Z,59.09
2023-05-01T11:48:15.999Z,59.19
2023-05-01T11:49:15.921Z,59.59
2023-05-01T11:50:15.935Z,59.69
2023-05-01T11:51:15.897Z,59.99
2023-05-01T11:52:15.958Z,59.59
2023-05-01T11:53:16.136Z,59.26
2023-05-01T11:54:16.001Z,59.56
2023-05-01T11:55:15.867Z,59.26
2023-05-01T11:56:25.403Z,59.26
2023-05-01T11:57:16.820Z,59.29
2023-05-01T11:58:15.839Z,59.49
2023-05-01T11:59:15.849Z,59.39
2023-05-01T12:00:15.796Z,59.49
2023-05-01T12:01:15.783Z,60.10
2023-05-01T12:02:15.860Z,60.22
2023-05-01T12:03:15.952Z,59.72
2023-05-01T12:04:15.856Z,59.89
2023-05-01T12:05:15.735Z,59.29
2023-05-01T12:06:15.803Z,59.09
2023-05-01T12:07:15.714Z,59.59
2023-05-01T12:08:15.733Z,59.89
2023-05-01T12:09:15.685Z,59.29
2023-05-01T12:10:15.701Z,59.09
2023-05-01T12:11:15.694Z,59.49
2023-05-01T12:12:15.652Z,59.09
2023-05-01T12:13:15.660Z,59.19
2023-05-01T12:14:15.656Z,58.79
2023-05-01T12:15:15.620Z,58.76
2023-05-01T12:16:15.651Z,59.36
2023-05-01T12:17:15.657Z,59.06
2023-05-01T12:18:15.838Z,58.63
2023-05-01T12:19:15.636Z,58.94
2023-05-01T12:20:15.580Z,58.20
2023-05-01T12:21:15.580Z,58.50
2023-05-01T12:22:15.552Z,58.28
2023-05-01T12:23:15.539Z,57.82
2023-05-01T12:24:15.546Z,56.87
2023-05-01T12:25:15.543Z,54.74
2023-05-01T12:26:15.545Z,54.41
2023-05-01T12:27:15.512Z,54.09
2023-05-01T12:28:15.513Z,53.47
2023-05-01T12:29:15.492Z,53.17
2023-05-01T12:30:15.483Z,52.76
2023-05-01T12:31:15.524Z,52.87
2023-05-01T12:32:15.497Z,53.17
2023-05-01T12:33:15.481Z,53.89
2023-05-01T12:34:15.424Z,53.89
2023-05-01T12:35:15.423Z,53.09
2023-05-01T12:36:15.411Z,52.82
2023-05-01T12:37:15.400Z,53.12
2023-05-01T12:38:15.402Z,52.72
2023-05-01T12:39:15.375Z,53.22
2023-05-01T12:40:15.373Z,53.61
2023-05-01T12:41:15.355Z,53.09
2023-05-01T12:42:15.375Z,52.79
2023-05-01T12:43:15.324Z,53.27
2023-05-01T12:44:15.332Z,53.66
2023-05-01T12:45:15.300Z,53.64
2023-05-01T12:46:15.317Z,52.92
2023-05-01T12:47:15.297Z,51.29
2023-05-01T12:48:15.351Z,50.78
2023-05-01T12:49:15.271Z,50.68
2023-05-01T12:50:15.255Z,51.50
2023-05-01T12:51:15.253Z,51.82
2023-05-01T12:52:15.246Z,51.54